createdAt,value
2024-02-02T00:00:26.788Z,6.87
2024-02-02T00:02:53.794Z,6.89
2024-02-02T00:05:20.558Z,7.02
2024-02-02T00:07:47.524Z,6.96
2024-02-02T00:10:14.487Z,6.96
2024-02-02T00:12:41.209Z,7.09
2024-02-02T00:15:10.400Z,7.06
2024-02-02T00:17:37.288Z,7.03
2024-02-02T00:20:04.616Z,7.03
2024-02-02T00:22:31.489Z,6.97
2024-02-02T00:24:58.236Z,7.09
2024-02-02T00:27:25.311Z,7.16
2024-02-02T00:29:52.413Z,7.20
2024-02-02T00:32:20.609Z,7.31
2024-02-02T00:34:47.631Z,7.24
2024-02-02T00:37:14.651Z,7.25
2024-02-02T00:39:41.444Z,7.24
2024-02-02T00:42:08.203Z,7.34
2024-02-02T00:44:34.948Z,7.31
2024-02-02T00:47:01.672Z,7.28
2024-02-02T00:49:30.180Z,7.45
2024-02-02T00:51:57.157Z,7.34
2024-02-02T00:54:24.197Z,7.46
2024-02-02T00:56:51.264Z,7.36
2024-02-02T00:59:18.027Z,7.38
2024-02-02T01:01:44.782Z,7.45
2024-02-02T01:04:11.860Z,7.41
2024-02-02T01:06:40.112Z,7.53
2024-02-02T01:09:07.007Z,7.45
2024-02-02T01:11:33.793Z,7.48
2024-02-02T01:14:00.699Z,7.30
2024-02-02T01:16:27.477Z,7.49
2024-02-02T01:18:54.339Z,7.57
2024-02-02T01:21:21.237Z,7.56
2024-02-02T01:23:49.448Z,7.45
2024-02-02T01:26:16.201Z,7.34
2024-02-02T01:28:43.329Z,7.34
2024-02-02T01:31:10.227Z,7.34
2024-02-02T01:33:37.022Z,7.33
2024-02-02T01:36:06.084Z,7.39
2024-02-02T01:38:32.880Z,7.40
2024-02-02T01:41:01.006Z,7.48
2024-02-02T01:43:28.200Z,7.44
2024-02-02T01:45:54.976Z,7.48
2024-02-02T01:48:21.917Z,7.43
2024-02-02T01:50:48.793Z,7.49
2024-02-02T01:53:15.756Z,7.53
2024-02-02T01:55:42.956Z,7.50
2024-02-02T01:58:11.141Z,7.53
2024-02-02T02:00:38.207Z,7.48
2024-02-02T02:03:05.667Z,7.46
2024-02-02T02:05:32.574Z,7.49
2024-02-02T02:07:59.659Z,7.32
2024-02-02T02:10:27.474Z,7.28
2024-02-02T02:12:54.293Z,7.25
2024-02-02T02:15:22.550Z,7.32
2024-02-02T02:17:49.652Z,7.31
2024-02-02T02:20:21.664Z,7.43
2024-02-02T02:22:50.050Z,7.34
2024-02-02T02:25:16.979Z,7.26
2024-02-02T02:27:43.860Z,7.30
2024-02-02T02:30:11.751Z,7.23
2024-02-02T02:32:38.883Z,7.20
2024-02-02T02:35:06.506Z,7.16
2024-02-02T02:37:33.307Z,7.20
2024-02-02T02:40:01.420Z,7.32
2024-02-02T02:42:28.201Z,7.30
2024-02-02T02:44:55.029Z,7.38
2024-02-02T02:47:21.932Z,7.47
2024-02-02T02:49:48.823Z,7.52
2024-02-02T02:52:15.766Z,7.51
2024-02-02T02:54:42.680Z,7.58
2024-02-02T02:57:10.868Z,7.60
2024-02-02T02:59:37.634Z,7.56
2024-02-02T03:02:04.644Z,7.59
2024-02-02T03:04:31.466Z,7.66
2024-02-02T03:06:58.492Z,7.59
2024-02-02T03:09:25.420Z,7.74
2024-02-02T03:11:52.403Z,7.67
2024-02-02T03:14:20.559Z,7.83
2024-02-02T03:16:47.259Z,7.63
2024-02-02T03:19:14.198Z,7.74
2024-02-02T03:21:41.000Z,7.61
2024-02-02T03:24:07.858Z,7.53
2024-02-02T03:26:34.618Z,7.46
2024-02-02T03:29:01.383Z,7.38
2024-02-02T03:31:29.983Z,7.34
2024-02-02T03:33:56.849Z,7.32
2024-02-02T03:36:23.904Z,7.29
2024-02-02T03:38:50.761Z,7.25
2024-02-02T03:41:17.670Z,7.20
2024-02-02T03:43:44.466Z,7.22
2024-02-02T03:46:11.245Z,7.19
2024-02-02T03:48:39.411Z,7.26
2024-02-02T03:51:06.551Z,7.23
2024-02-02T03:53:33.262Z,7.16
2024-02-02T03:56:00.182Z,7.17
2024-02-02T03:58:26.936Z,7.17
2024-02-02T04:00:53.675Z,7.18
2024-02-02T04:03:20.687Z,7.13
2024-02-02T04:05:48.960Z,7.31
2024-02-02T04:08:15.871Z,7.28
2024-02-02T04:10:42.658Z,7.09
2024-02-02T04:13:09.402Z,7.06
2024-02-02T04:15:36.176Z,7.05
2024-02-02T04:18:03.188Z,7.01
2024-02-02T04:20:30.108Z,6.93
2024-02-02T04:22:58.301Z,6.95
2024-02-02T04:25:25.358Z,6.88
2024-02-02T04:27:52.093Z,6.87
2024-02-02T04:30:18.924Z,6.84
2024-02-02T04:32:46.012Z,6.80
2024-02-02T04:35:13.160Z,6.80
2024-02-02T04:37:40.218Z,6.79
2024-02-02T04:40:09.523Z,6.80
2024-02-02T04:42:36.428Z,6.68
2024-02-02T04:45:03.575Z,6.68
2024-02-02T04:47:30.349Z,6.63
2024-02-02T04:49:57.305Z,6.61
2024-02-02T04:52:24.272Z,6.58
2024-02-02T04:54:50.967Z,6.54
2024-02-02T04:57:19.111Z,6.64
2024-02-02T04:59:45.951Z,6.61
2024-02-02T05:02:12.989Z,6.58
2024-02-02T05:04:39.992Z,6.61
2024-02-02T05:07:07.191Z,6.56
2024-02-02T05:09:34.032Z,6.56
2024-02-02T05:12:01.004Z,6.58
2024-02-02T05:14:29.182Z,6.50
2024-02-02T05:16:55.986Z,6.64
2024-02-02T05:19:23.674Z,6.54
2024-02-02T05:21:50.518Z,6.53
2024-02-02T05:24:31.568Z,6.56
2024-02-02T05:27:04.506Z,6.47
2024-02-02T05:29:32.682Z,6.62
2024-02-02T05:31:59.418Z,6.48
2024-02-02T05:34:26.350Z,6.39
2024-02-02T05:36:53.215Z,6.45
2024-02-02T05:39:20.048Z,6.46
2024-02-02T05:41:46.780Z,6.46
2024-02-02T05:44:13.939Z,6.48
2024-02-02T05:46:42.059Z,6.52
2024-02-02T05:49:09.345Z,6.45
2024-02-02T05:51:36.180Z,6.44
2024-02-02T05:54:03.038Z,6.36
2024-02-02T05:56:29.746Z,6.42
2024-02-02T05:58:56.504Z,6.39
2024-02-02T06:01:23.279Z,6.38
2024-02-02T06:03:51.581Z,6.41
2024-02-02T06:06:18.648Z,6.41
2024-02-02T06:08:45.430Z,6.39
2024-02-02T06:11:12.245Z,6.36
2024-02-02T06:13:39.063Z,6.37
2024-02-02T06:16:06.119Z,6.38
2024-02-02T06:18:33.191Z,6.39
2024-02-02T06:21:01.441Z,6.41
2024-02-02T06:23:28.306Z,6.34
2024-02-02T06:25:55.057Z,6.36
2024-02-02T06:28:21.815Z,6.36
2024-02-02T06:30:48.558Z,6.29
2024-02-02T06:33:15.628Z,6.32
2024-02-02T06:35:42.452Z,6.45
2024-02-02T06:38:10.604Z,6.58
2024-02-02T06:40:37.364Z,6.37
2024-02-02T06:43:04.487Z,6.36
2024-02-02T06:45:31.450Z,6.35
2024-02-02T06:47:58.290Z,6.30
2024-02-02T06:50:25.142Z,6.43
2024-02-02T06:52:52.361Z,6.36
2024-02-02T06:55:20.597Z,6.36
2024-02-02T06:57:47.479Z,6.34
2024-02-02T07:00:16.442Z,6.33
2024-02-02T07:02:44.210Z,6.39
2024-02-02T07:05:13.463Z,6.33
2024-02-02T07:07:40.339Z,6.30
2024-02-02T07:10:10.377Z,6.41
2024-02-02T07:12:58.894Z,6.50
2024-02-02T07:15:28.166Z,6.48
2024-02-02T07:17:55.444Z,6.46
2024-02-02T07:20:59.454Z,6.52
2024-02-02T07:23:33.752Z,6.52
2024-02-02T07:26:01.084Z,6.51
2024-02-02T07:28:36.004Z,6.61
2024-02-02T07:31:04.016Z,6.50
2024-02-02T07:33:38.637Z,6.66
2024-02-02T07:36:10.016Z,6.58
2024-02-02T07:38:43.868Z,6.71
2024-02-02T07:41:12.189Z,6.69
2024-02-02T07:43:40.561Z,6.76
2024-02-02T07:46:11.310Z,6.70
2024-02-02T07:48:40.747Z,6.67
2024-02-02T07:51:08.076Z,6.70
2024-02-02T07:53:35.268Z,6.72
2024-02-02T07:56:02.428Z,6.65
2024-02-02T07:58:29.475Z,6.62
2024-02-02T08:00:58.674Z,6.81
2024-02-02T08:03:25.755Z,6.81
2024-02-02T08:05:53.139Z,6.79
2024-02-02T08:08:19.910Z,6.85
2024-02-02T08:10:47.745Z,6.95
2024-02-02T08:13:15.039Z,6.97
2024-02-02T08:15:41.991Z,6.95
2024-02-02T08:18:10.712Z,7.10
2024-02-02T08:20:38.251Z,7.02
2024-02-02T08:23:06.223Z,7.10
2024-02-02T08:25:33.024Z,7.12
2024-02-02T08:28:01.211Z,7.20
2024-02-02T08:30:28.275Z,7.28
2024-02-02T08:32:55.539Z,7.34
2024-02-02T08:35:25.431Z,7.47
2024-02-02T08:37:52.436Z,7.41
2024-02-02T08:40:36.351Z,7.58
2024-02-02T08:43:03.396Z,7.44
2024-02-02T08:46:15.341Z,7.51
2024-02-02T08:48:44.129Z,7.46
2024-02-02T08:51:50.142Z,7.55
2024-02-02T08:54:47.510Z,7.52
2024-02-02T08:57:31.891Z,7.58
2024-02-02T09:00:00.562Z,7.69
2024-02-02T09:02:53.967Z,7.92
2024-02-02T09:05:22.357Z,7.69
2024-02-02T09:07:52.249Z,8.08
2024-02-02T09:10:56.263Z,8.14
2024-02-02T09:13:25.828Z,7.95
2024-02-02T09:15:53.639Z,7.96
2024-02-02T09:18:34.729Z,8.11
2024-02-02T09:21:02.999Z,8.22
2024-02-02T09:23:32.622Z,8.11
2024-02-02T09:26:00.650Z,8.31
2024-02-02T09:28:41.784Z,8.32
2024-02-02T09:31:11.817Z,8.33
2024-02-02T09:33:46.156Z,8.48
2024-02-02T09:36:13.778Z,8.27
2024-02-02T09:38:54.822Z,8.47
2024-02-02T09:41:58.964Z,8.54
2024-02-02T09:44:44.361Z,8.75
2024-02-02T09:47:22.893Z,8.86
2024-02-02T09:50:00.474Z,9.02
2024-02-02T09:52:38.368Z,9.24
2024-02-02T09:55:16.727Z,9.26
2024-02-02T09:57:50.642Z,9.40
2024-02-02T10:00:25.908Z,9.29
2024-02-02T10:03:12.043Z,9.27
2024-02-02T10:05:50.189Z,9.35
2024-02-02T10:08:33.505Z,9.42
2024-02-02T10:11:22.574Z,9.48
2024-02-02T10:14:06.868Z,9.33
2024-02-02T10:16:42.847Z,9.36
2024-02-02T10:19:31.377Z,9.39
2024-02-02T10:22:16.759Z,9.30
2024-02-02T10:25:00.438Z,9.52
2024-02-02T10:27:42.682Z,9.56
2024-02-02T10:30:26.848Z,9.63
2024-02-02T10:33:06.047Z,9.59
2024-02-02T10:35:39.882Z,9.89
2024-02-02T10:38:19.856Z,9.55
2024-02-02T10:40:58.586Z,9.61
2024-02-02T10:43:41.860Z,9.52
2024-02-02T10:46:21.476Z,9.47
2024-02-02T10:49:04.050Z,9.38
2024-02-02T10:51:39.223Z,9.38
2024-02-02T10:54:18.750Z,9.38
2024-02-02T10:56:59.507Z,9.18
2024-02-02T10:59:39.343Z,9.15
2024-02-02T11:02:16.860Z,9.18
2024-02-02T11:04:57.025Z,9.02
2024-02-02T11:07:27.606Z,8.88
2024-02-02T11:09:58.242Z,8.98
2024-02-02T11:12:36.049Z,9.04
2024-02-02T11:15:18.771Z,8.99
2024-02-02T11:17:55.732Z,8.83
2024-02-02T11:20:36.625Z,8.81
2024-02-02T11:23:10.479Z,8.94
2024-02-02T11:25:42.294Z,8.92
2024-02-02T11:28:17.116Z,8.96
2024-02-02T11:30:57.609Z,9.00
2024-02-02T11:33:47.902Z,8.91
2024-02-02T11:36:41.079Z,9.01
2024-02-02T11:39:22.212Z,8.91
2024-02-02T11:41:49.852Z,8.84
2024-02-02T11:44:18.045Z,8.76
2024-02-02T11:46:48.292Z,8.74
2024-02-02T11:49:24.847Z,8.77
2024-02-02T11:51:55.364Z,8.77
2024-02-02T11:54:27.780Z,8.70
2024-02-02T11:56:56.612Z,8.66
2024-02-02T11:59:28.183Z,8.73
2024-02-02T12:02:15.259Z,8.86
2024-02-02T12:04:45.141Z,8.81
2024-02-02T12:07:24.879Z,8.84
2024-02-02T12:09:58.478Z,8.69
2024-02-02T12:12:32.559Z,8.85
2024-02-02T12:14:59.603Z,8.77
2024-02-02T12:17:27.864Z,8.92
2024-02-02T12:19:55.451Z,8.87
2024-02-02T12:22:22.355Z,9.01
2024-02-02T12:24:49.178Z,8.97
2024-02-02T12:27:16.312Z,9.05
2024-02-02T12:29:43.288Z,9.13
2024-02-02T12:32:11.704Z,8.94
2024-02-02T12:34:40.469Z,8.94
2024-02-02T12:37:07.498Z,8.85
2024-02-02T12:39:34.466Z,8.77
2024-02-02T12:42:01.789Z,8.76
2024-02-02T12:44:30.367Z,8.67
2024-02-02T12:46:57.286Z,8.69
2024-02-02T12:49:26.354Z,8.69
2024-02-02T12:51:55.472Z,8.70
2024-02-02T12:54:22.292Z,8.61
2024-02-02T12:56:49.172Z,8.72
2024-02-02T12:59:15.997Z,8.79
2024-02-02T13:01:42.905Z,8.74
2024-02-02T13:04:10.590Z,8.83
2024-02-02T13:06:37.596Z,8.88
2024-02-02T13:09:26.087Z,8.96
2024-02-02T13:11:54.118Z,8.90
2024-02-02T13:14:28.321Z,9.02
2024-02-02T13:17:09.043Z,8.98
2024-02-02T13:19:40.456Z,8.98
2024-02-02T13:22:15.725Z,9.06
2024-02-02T13:24:54.170Z,9.08
2024-02-02T13:27:23.313Z,9.01
2024-02-02T13:29:54.407Z,9.13
2024-02-02T13:32:21.441Z,9.14
2024-02-02T13:34:48.292Z,9.10
2024-02-02T13:37:15.175Z,9.16
2024-02-02T13:39:45.542Z,9.24
2024-02-02T13:42:13.996Z,9.35
2024-02-02T13:44:40.975Z,9.34
2024-02-02T13:47:11.372Z,9.41
2024-02-02T13:49:38.457Z,9.26
2024-02-02T13:52:05.966Z,9.31
2024-02-02T13:54:32.960Z,9.27
2024-02-02T13:57:01.020Z,9.32
2024-02-02T13:59:29.429Z,9.45
2024-02-02T14:02:04.830Z,9.54
2024-02-02T14:04:31.747Z,9.43
2024-02-02T14:06:58.602Z,9.53
2024-02-02T14:09:25.461Z,9.61
2024-02-02T14:11:59.942Z,9.74
2024-02-02T14:14:26.954Z,9.61
2024-02-02T14:17:02.014Z,9.72
2024-02-02T14:19:29.006Z,9.55
2024-02-02T14:22:04.286Z,9.70
2024-02-02T14:24:31.148Z,9.62
2024-02-02T14:27:00.241Z,9.58
2024-02-02T14:29:27.136Z,9.62
2024-02-02T14:31:54.986Z,9.61
2024-02-02T14:34:23.615Z,9.61
2024-02-02T14:36:50.744Z,9.57
2024-02-02T14:39:18.982Z,9.56
2024-02-02T14:41:45.879Z,9.63
2024-02-02T14:44:12.608Z,9.53
2024-02-02T14:46:39.543Z,9.59
2024-02-02T14:49:09.475Z,9.60
2024-02-02T14:51:38.327Z,9.69
2024-02-02T14:54:05.819Z,9.74
2024-02-02T14:56:33.201Z,9.62
2024-02-02T14:59:00.325Z,9.65
2024-02-02T15:01:27.124Z,9.71
2024-02-02T15:03:54.356Z,9.69
2024-02-02T15:06:21.652Z,9.59
2024-02-02T15:08:49.896Z,9.73
2024-02-02T15:11:16.892Z,9.78
2024-02-02T15:13:43.723Z,9.81
2024-02-02T15:16:12.508Z,9.77
2024-02-02T15:18:39.318Z,9.79
2024-02-02T15:21:06.222Z,9.68
2024-02-02T15:23:33.378Z,9.68
2024-02-02T15:26:01.693Z,9.77
2024-02-02T15:28:28.505Z,9.57
2024-02-02T15:30:56.186Z,9.43
2024-02-02T15:33:23.026Z,9.58
2024-02-02T15:35:50.007Z,9.53
2024-02-02T15:38:16.729Z,9.46
2024-02-02T15:40:43.580Z,9.33
2024-02-02T15:43:11.813Z,9.40
2024-02-02T15:45:38.591Z,9.40
2024-02-02T15:48:06.163Z,9.42
2024-02-02T15:50:33.035Z,9.42
2024-02-02T15:53:02.430Z,9.38
2024-02-02T15:55:29.345Z,9.43
2024-02-02T15:57:56.183Z,9.29
2024-02-02T16:00:24.406Z,9.36
2024-02-02T16:02:51.286Z,9.36
2024-02-02T16:05:18.617Z,9.31
2024-02-02T16:07:45.766Z,9.26
2024-02-02T16:10:13.488Z,9.14
2024-02-02T16:12:40.695Z,9.22
2024-02-02T16:15:08.665Z,9.19
2024-02-02T16:17:36.987Z,9.21
2024-02-02T16:20:04.374Z,9.18
2024-02-02T16:22:31.242Z,9.08
2024-02-02T16:24:58.154Z,9.02
2024-02-02T16:27:25.121Z,9.00
2024-02-02T16:29:51.881Z,9.01
2024-02-02T16:32:18.685Z,8.99
2024-02-02T16:34:46.928Z,8.87
2024-02-02T16:37:13.797Z,8.72
2024-02-02T16:39:40.710Z,8.72
2024-02-02T16:42:07.516Z,8.76
2024-02-02T16:44:34.280Z,8.83
2024-02-02T16:47:03.952Z,8.90
2024-02-02T16:49:30.835Z,9.20
2024-02-02T16:51:59.758Z,9.10
2024-02-02T16:54:27.049Z,9.01
2024-02-02T16:56:54.140Z,9.04
2024-02-02T16:59:21.286Z,8.96
2024-02-02T17:01:48.155Z,8.93
2024-02-02T17:04:15.247Z,8.86
2024-02-02T17:06:42.452Z,8.83
2024-02-02T17:09:11.085Z,8.85
2024-02-02T17:11:38.160Z,8.74
2024-02-02T17:14:05.073Z,8.70
2024-02-02T17:16:35.748Z,8.67
2024-02-02T17:19:03.431Z,8.62
2024-02-02T17:21:30.651Z,8.54
2024-02-02T17:23:57.786Z,8.64
2024-02-02T17:26:26.113Z,8.71
2024-02-02T17:28:59.983Z,8.70
2024-02-02T17:31:30.580Z,8.77
2024-02-02T17:33:57.644Z,8.81
2024-02-02T17:36:24.821Z,8.85
2024-02-02T17:38:52.170Z,8.96
2024-02-02T17:41:19.383Z,8.94
2024-02-02T17:43:47.791Z,8.94
2024-02-02T17:46:15.605Z,8.91
2024-02-02T17:48:42.628Z,8.97
2024-02-02T17:51:09.880Z,8.95
2024-02-02T17:53:38.032Z,8.99
2024-02-02T17:56:05.851Z,9.03
2024-02-02T17:58:33.602Z,8.98
2024-02-02T18:01:02.311Z,9.00
2024-02-02T18:03:29.788Z,8.96
2024-02-02T18:05:56.784Z,8.98
2024-02-02T18:08:24.374Z,8.96
2024-02-02T18:10:51.529Z,8.93
2024-02-02T18:13:18.869Z,8.91
2024-02-02T18:15:45.991Z,9.01
2024-02-02T18:18:14.603Z,9.07
2024-02-02T18:20:42.142Z,8.96
2024-02-02T18:23:09.037Z,9.01
2024-02-02T18:25:36.026Z,8.90
2024-02-02T18:28:02.980Z,8.82
2024-02-02T18:30:30.115Z,8.73
2024-02-02T18:32:57.120Z,8.68
2024-02-02T18:35:25.566Z,8.42
2024-02-02T18:37:52.498Z,8.60
2024-02-02T18:40:19.680Z,8.51
2024-02-02T18:42:46.754Z,8.46
2024-02-02T18:45:14.182Z,8.49
2024-02-02T18:47:45.943Z,8.51
2024-02-02T18:50:12.922Z,8.54
2024-02-02T18:52:41.442Z,8.54
2024-02-02T18:55:11.454Z,8.59
2024-02-02T18:57:38.616Z,8.56
2024-02-02T19:00:14.195Z,8.63
2024-02-02T19:02:41.653Z,8.57
2024-02-02T19:05:09.333Z,8.51
2024-02-02T19:07:39.211Z,8.38
2024-02-02T19:10:08.236Z,8.46
2024-02-02T19:12:35.186Z,8.34
2024-02-02T19:15:04.864Z,8.19
2024-02-02T19:17:32.035Z,8.14
2024-02-02T19:20:01.424Z,8.17
2024-02-02T19:22:28.630Z,8.05
2024-02-02T19:24:56.034Z,8.10
2024-02-02T19:27:25.925Z,8.12
2024-02-02T19:29:53.108Z,8.02
2024-02-02T19:32:19.981Z,7.96
2024-02-02T19:34:47.358Z,7.91
2024-02-02T19:37:14.585Z,7.93
2024-02-02T19:39:41.758Z,8.04
2024-02-02T19:42:09.164Z,8.11
2024-02-02T19:44:37.484Z,8.13
2024-02-02T19:47:04.790Z,8.14
2024-02-02T19:49:33.216Z,8.12
2024-02-02T19:52:00.356Z,8.17
2024-02-02T19:54:27.190Z,8.29
2024-02-02T19:56:53.977Z,8.43
2024-02-02T19:59:20.817Z,8.61
2024-02-02T20:01:49.030Z,8.75
2024-02-02T20:04:16.273Z,8.80
2024-02-02T20:06:43.231Z,8.91
2024-02-02T20:09:10.137Z,8.90
2024-02-02T20:11:37.037Z,9.05
2024-02-02T20:14:03.856Z,9.03
2024-02-02T20:16:30.639Z,9.11
2024-02-02T20:18:58.886Z,9.22
2024-02-02T20:21:25.883Z,9.20
2024-02-02T20:23:52.970Z,9.24
2024-02-02T20:26:21.384Z,9.30
2024-02-02T20:28:48.802Z,9.37
2024-02-02T20:31:15.654Z,9.37
2024-02-02T20:33:42.789Z,9.38
2024-02-02T20:36:11.312Z,9.43
2024-02-02T20:38:38.317Z,9.43
2024-02-02T20:41:05.493Z,9.48
2024-02-02T20:43:32.497Z,9.55
2024-02-02T20:45:59.672Z,9.57
2024-02-02T20:48:26.744Z,9.58
2024-02-02T20:50:53.553Z,9.61
2024-02-02T20:53:21.649Z,9.68
2024-02-02T20:55:48.806Z,9.65
2024-02-02T20:58:15.590Z,9.66
2024-02-02T21:00:42.496Z,9.64
2024-02-02T21:03:09.455Z,9.73
2024-02-02T21:05:36.747Z,9.67
2024-02-02T21:08:04.015Z,9.64
2024-02-02T21:10:32.371Z,9.77
2024-02-02T21:12:59.299Z,9.73
2024-02-02T21:15:26.681Z,9.71
2024-02-02T21:17:53.469Z,9.73
2024-02-02T21:20:20.200Z,9.77
2024-02-02T21:22:47.288Z,9.77
2024-02-02T21:25:14.095Z,9.72
2024-02-02T21:27:42.333Z,9.79
2024-02-02T21:30:10.144Z,9.73
2024-02-02T21:32:36.930Z,9.79
2024-02-02T21:35:04.050Z,9.74
2024-02-02T21:37:30.927Z,9.79
2024-02-02T21:39:57.870Z,9.74
2024-02-02T21:42:24.959Z,9.67
2024-02-02T21:44:53.113Z,9.66
2024-02-02T21:47:19.823Z,9.62
2024-02-02T21:49:46.729Z,9.66
2024-02-02T21:52:13.582Z,9.65
2024-02-02T21:54:40.344Z,9.66
2024-02-02T21:57:07.055Z,9.67
2024-02-02T21:59:33.883Z,9.69
2024-02-02T22:02:01.956Z,9.75
2024-02-02T22:04:28.759Z,9.69
2024-02-02T22:06:55.567Z,9.56
2024-02-02T22:09:22.349Z,9.53
2024-02-02T22:11:49.113Z,9.51
2024-02-02T22:14:15.803Z,9.42
2024-02-02T22:16:42.539Z,9.44
2024-02-02T22:19:10.823Z,9.43
2024-02-02T22:21:37.777Z,9.46
2024-02-02T22:24:05.346Z,9.52
2024-02-02T22:26:32.172Z,9.51
2024-02-02T22:28:58.898Z,9.56
2024-02-02T22:31:25.649Z,9.60
2024-02-02T22:33:52.474Z,9.54
2024-02-02T22:36:23.605Z,9.70
2024-02-02T22:38:50.346Z,9.58
2024-02-02T22:41:29.058Z,9.62
2024-02-02T22:44:00.637Z,9.63
2024-02-02T22:46:30.457Z,9.71
2024-02-02T22:48:57.317Z,9.67
2024-02-02T22:51:25.693Z,9.68
2024-02-02T22:53:52.648Z,9.66
2024-02-02T22:56:19.417Z,9.66
2024-02-02T22:58:46.121Z,9.75
2024-02-02T23:01:13.094Z,9.73
2024-02-02T23:03:40.140Z,9.82
2024-02-02T23:06:07.707Z,9.85
2024-02-02T23:08:36.023Z,9.84
2024-02-02T23:11:02.771Z,9.89
2024-02-02T23:13:29.591Z,9.96
2024-02-02T23:15:56.435Z,9.92
2024-02-02T23:18:23.295Z,9.91
2024-02-02T23:20:50.302Z,10.07
2024-02-02T23:23:17.758Z,10.16
2024-02-02T23:25:45.951Z,10.18
2024-02-02T23:28:13.151Z,10.06
2024-02-02T23:30:39.919Z,10.13
2024-02-02T23:33:06.825Z,10.08
2024-02-02T23:35:33.626Z,10.03
2024-02-02T23:38:00.394Z,10.12
2024-02-02T23:40:27.166Z,10.10
2024-02-02T23:42:55.642Z,10.15
2024-02-02T23:45:23.059Z,10.15
2024-02-02T23:47:49.962Z,10.09
2024-02-02T23:50:16.879Z,10.12
2024-02-02T23:52:43.637Z,10.04
2024-02-02T23:55:10.863Z,9.97
2024-02-02T23:57:37.814Z,10.19
